createdAt,value
2023-03-06T00:00:46.567Z,2.12
2023-03-06T00:01:46.620Z,2.14
2023-03-06T00:02:46.608Z,2.11
2023-03-06T00:03:46.645Z,2.09
2023-03-06T00:04:46.708Z,2.10
2023-03-06T00:05:46.715Z,2.13
2023-03-06T00:06:46.721Z,2.10
2023-03-06T00:07:46.771Z,2.15
2023-03-06T00:08:46.770Z,2.08
2023-03-06T00:09:46.795Z,2.09
2023-03-06T00:10:46.841Z,2.09
2023-03-06T00:11:46.852Z,2.07
2023-03-06T00:12:46.932Z,2.05
2023-03-06T00:13:46.929Z,2.12
2023-03-06T00:14:46.947Z,1.96
2023-03-06T00:15:46.995Z,2.05
2023-03-06T00:16:46.990Z,2.02
2023-03-06T00:17:47.013Z,2.00
2023-03-06T00:18:47.056Z,2.04
2023-03-06T00:19:47.054Z,2.00
2023-03-06T00:20:47.123Z,1.88
2023-03-06T00:21:47.113Z,1.96
2023-03-06T00:22:47.159Z,1.94
2023-03-06T00:23:47.167Z,1.95
2023-03-06T00:24:47.210Z,1.98
2023-03-06T00:25:47.213Z,1.93
2023-03-06T00:26:47.268Z,1.86
2023-03-06T00:27:47.276Z,1.94
2023-03-06T00:28:47.304Z,2.01
2023-03-06T00:29:47.360Z,1.97
2023-03-06T00:30:47.363Z,1.90
2023-03-06T00:31:47.435Z,1.99
2023-03-06T00:32:47.412Z,2.02
2023-03-06T00:33:47.439Z,1.94
2023-03-06T00:34:47.460Z,1.95
2023-03-06T00:35:47.529Z,1.97
2023-03-06T00:36:47.501Z,1.99
2023-03-06T00:37:47.552Z,1.97
2023-03-06T00:38:47.560Z,1.83
2023-03-06T00:39:47.607Z,1.85
2023-03-06T00:40:47.629Z,1.90
2023-03-06T00:41:47.656Z,1.87
2023-03-06T00:42:47.699Z,1.85
2023-03-06T00:43:47.676Z,1.96
2023-03-06T00:44:47.697Z,1.93
2023-03-06T00:45:47.787Z,1.88
2023-03-06T00:46:47.749Z,1.91
2023-03-06T00:47:47.783Z,1.86
2023-03-06T00:48:47.819Z,1.92
2023-03-06T00:49:47.829Z,1.87
2023-03-06T00:50:47.841Z,1.90
2023-03-06T00:51:47.874Z,1.93
2023-03-06T00:52:47.916Z,1.94
2023-03-06T00:53:47.936Z,1.89
2023-03-06T00:54:47.968Z,1.89
2023-03-06T00:55:47.964Z,1.92
2023-03-06T00:56:48.009Z,1.89
2023-03-06T00:57:48.048Z,1.94
2023-03-06T00:58:48.045Z,1.93
2023-03-06T00:59:48.069Z,1.93
2023-03-06T01:00:48.174Z,1.89
2023-03-06T01:01:48.159Z,1.95
2023-03-06T01:02:48.127Z,1.95
2023-03-06T01:03:48.198Z,1.96
2023-03-06T01:04:48.184Z,1.91
2023-03-06T01:05:48.209Z,1.90
2023-03-06T01:06:48.231Z,1.91
2023-03-06T01:07:48.267Z,1.87
2023-03-06T01:08:48.290Z,1.91
2023-03-06T01:09:48.304Z,1.89
2023-03-06T01:10:48.382Z,1.83
2023-03-06T01:11:48.374Z,1.89
2023-03-06T01:12:48.415Z,1.90
2023-03-06T01:13:48.428Z,1.92
2023-03-06T01:14:48.469Z,1.86
2023-03-06T01:15:48.511Z,1.87
2023-03-06T01:16:48.529Z,1.84
2023-03-06T01:17:48.557Z,1.90
2023-03-06T01:18:48.573Z,1.84
2023-03-06T01:19:48.573Z,1.83
2023-03-06T01:20:48.617Z,1.83
2023-03-06T01:21:48.643Z,1.88
2023-03-06T01:22:48.657Z,1.88
2023-03-06T01:23:48.690Z,1.85
2023-03-06T01:24:48.716Z,1.84
2023-03-06T01:25:48.718Z,1.81
2023-03-06T01:26:48.763Z,1.75
2023-03-06T01:27:48.800Z,1.77
2023-03-06T01:28:48.813Z,1.83
2023-03-06T01:29:48.824Z,1.82
2023-03-06T01:30:48.884Z,1.75
2023-03-06T01:31:48.933Z,1.77
2023-03-06T01:32:48.936Z,1.75
2023-03-06T01:33:48.982Z,1.76
2023-03-06T01:34:49.019Z,1.76
2023-03-06T01:35:49.071Z,1.70
2023-03-06T01:36:49.085Z,1.75
2023-03-06T01:37:49.093Z,1.74
2023-03-06T01:38:49.141Z,1.76
2023-03-06T01:39:49.144Z,1.74
2023-03-06T01:40:49.187Z,1.76
2023-03-06T01:41:49.206Z,1.72
2023-03-06T01:42:49.231Z,1.81
2023-03-06T01:43:49.302Z,1.76
2023-03-06T01:44:49.300Z,1.66
2023-03-06T01:45:49.410Z,1.61
2023-03-06T01:46:49.377Z,1.66
2023-03-06T01:47:49.395Z,1.59
2023-03-06T01:48:49.408Z,1.63
2023-03-06T01:49:49.466Z,1.65
2023-03-06T01:50:49.475Z,1.65
2023-03-06T01:51:49.509Z,1.62
2023-03-06T01:52:49.567Z,1.67
2023-03-06T01:53:49.617Z,1.65
2023-03-06T01:54:49.598Z,1.72
2023-03-06T01:55:49.648Z,1.64
2023-03-06T01:56:49.674Z,1.60
2023-03-06T01:57:49.715Z,1.55
2023-03-06T01:58:49.740Z,1.62
2023-03-06T01:59:49.804Z,1.50
2023-03-06T02:00:49.836Z,1.48
2023-03-06T02:01:49.868Z,1.53
2023-03-06T02:02:49.911Z,1.56
2023-03-06T02:03:49.916Z,1.54
2023-03-06T02:04:49.931Z,1.53
2023-03-06T02:05:49.987Z,1.58
2023-03-06T02:06:49.987Z,1.55
2023-03-06T02:07:50.043Z,1.56
2023-03-06T02:08:50.066Z,1.55
2023-03-06T02:09:50.088Z,1.63
2023-03-06T02:10:50.115Z,1.65
2023-03-06T02:11:50.144Z,1.68
2023-03-06T02:12:50.157Z,1.71
2023-03-06T02:13:50.177Z,1.70
2023-03-06T02:14:50.218Z,1.62
2023-03-06T02:15:50.239Z,1.63
2023-03-06T02:16:50.280Z,1.64
2023-03-06T02:17:50.280Z,1.59
2023-03-06T02:18:50.290Z,1.62
2023-03-06T02:19:50.302Z,1.62
2023-03-06T02:20:50.299Z,1.62
2023-03-06T02:21:50.350Z,1.66
2023-03-06T02:22:50.332Z,1.66
2023-03-06T02:23:50.376Z,1.68
2023-03-06T02:24:50.339Z,1.67
2023-03-06T02:25:50.351Z,1.70
2023-03-06T02:26:50.349Z,1.72
2023-03-06T02:29:50.352Z,1.71
2023-03-06T02:30:50.387Z,1.73
2023-03-06T02:31:50.314Z,1.78
2023-03-06T02:32:50.375Z,1.77
2023-03-06T02:33:50.374Z,1.79
2023-03-06T02:34:50.386Z,1.79
2023-03-06T02:35:50.423Z,1.79
2023-03-06T02:36:50.432Z,1.76
2023-03-06T02:37:50.471Z,1.76
2023-03-06T02:38:50.472Z,1.75
2023-03-06T02:39:50.488Z,1.78
2023-03-06T02:40:50.533Z,1.78
2023-03-06T02:41:50.586Z,1.79
2023-03-06T02:42:50.613Z,1.78
2023-03-06T02:43:50.668Z,1.75
2023-03-06T02:44:50.727Z,1.73
2023-03-06T02:45:50.853Z,1.72
2023-03-06T02:46:50.850Z,1.75
2023-03-06T02:47:50.949Z,1.78
2023-03-06T02:48:50.992Z,1.77
2023-03-06T02:49:51.053Z,1.74
2023-03-06T02:50:51.124Z,1.75
2023-03-06T02:51:51.176Z,1.74
2023-03-06T02:52:51.232Z,1.75
2023-03-06T02:53:51.290Z,1.79
2023-03-06T02:54:51.408Z,1.76
2023-03-06T02:55:51.406Z,1.80
2023-03-06T02:56:51.491Z,1.75
2023-03-06T02:57:51.532Z,1.74
2023-03-06T02:58:51.574Z,1.73
2023-03-06T02:59:51.652Z,1.77
2023-03-06T03:00:51.699Z,1.77
2023-03-06T03:01:51.832Z,1.79
2023-03-06T03:02:51.803Z,1.70
2023-03-06T03:03:51.849Z,1.70
2023-03-06T03:04:51.946Z,1.72
2023-03-06T03:05:51.950Z,1.74
2023-03-06T03:06:52.013Z,1.72
2023-03-06T03:07:52.038Z,1.74
2023-03-06T03:08:52.129Z,1.76
2023-03-06T03:09:52.185Z,1.73
2023-03-06T03:10:52.205Z,1.72
2023-03-06T03:11:52.244Z,1.73
2023-03-06T03:12:52.266Z,1.76
2023-03-06T03:13:52.445Z,1.77
2023-03-06T03:14:52.364Z,1.74
2023-03-06T03:15:52.438Z,1.76
2023-03-06T03:16:52.502Z,1.75
2023-03-06T03:17:52.510Z,1.74
2023-03-06T03:18:52.556Z,1.81
2023-03-06T03:19:52.628Z,1.83
2023-03-06T03:20:52.700Z,1.85
2023-03-06T03:21:52.707Z,1.83
2023-03-06T03:22:52.750Z,1.85
2023-03-06T03:23:52.776Z,1.84
2023-03-06T03:24:52.946Z,1.89
2023-03-06T03:25:52.879Z,1.90
2023-03-06T03:26:52.888Z,1.92
2023-03-06T03:27:52.979Z,1.91
2023-03-06T03:28:53.039Z,1.95
2023-03-06T03:29:53.031Z,1.94
2023-03-06T03:30:53.138Z,1.98
2023-03-06T03:31:53.113Z,1.99
2023-03-06T03:32:53.154Z,2.04
2023-03-06T03:33:53.176Z,1.96
2023-03-06T03:34:53.285Z,2.05
2023-03-06T03:35:53.275Z,1.94
2023-03-06T05:19:56.169Z,1.96
2023-03-06T05:27:56.425Z,1.96
2023-03-06T05:28:56.479Z,1.98
2023-03-06T05:29:56.509Z,1.96
2023-03-06T05:30:56.528Z,1.93
2023-03-06T05:31:56.639Z,1.98
2023-03-06T05:32:56.614Z,1.97
2023-03-06T05:33:56.617Z,2.00
2023-03-06T05:34:56.662Z,2.02
2023-03-06T05:35:56.753Z,2.01
2023-03-06T05:36:56.754Z,1.96
2023-03-06T05:37:56.797Z,1.99
2023-03-06T05:38:56.824Z,2.01
2023-03-06T05:39:56.858Z,1.98
2023-03-06T05:40:56.920Z,2.00
2023-03-06T05:41:56.948Z,1.95
2023-03-06T05:42:56.953Z,2.01
2023-03-06T05:43:56.999Z,2.03
2023-03-06T05:44:57.024Z,2.01
2023-03-06T05:45:57.114Z,2.04
2023-03-06T05:46:57.080Z,2.00
2023-03-06T05:47:57.140Z,2.04
2023-03-06T05:48:57.163Z,2.03
2023-03-06T05:49:57.190Z,2.04
2023-03-06T05:50:57.218Z,2.02
2023-03-06T05:51:57.262Z,1.98
2023-03-06T05:52:57.293Z,2.06
2023-03-06T05:53:57.330Z,2.09
2023-03-06T05:54:57.360Z,2.03
2023-03-06T05:55:57.383Z,2.04
2023-03-06T05:56:57.423Z,2.05
2023-03-06T05:57:57.465Z,2.01
2023-03-06T05:58:57.502Z,2.03
2023-03-06T05:59:57.538Z,2.07
2023-03-06T06:01:04.928Z,2.04
2023-03-06T06:02:57.603Z,2.05
2023-03-06T06:03:57.601Z,2.06
2023-03-06T06:04:57.626Z,2.07
2023-03-06T06:05:57.543Z,2.09
2023-03-06T06:06:57.514Z,2.10
2023-03-06T06:07:57.519Z,2.02
2023-03-06T06:25:58.003Z,2.10
2023-03-06T06:35:57.932Z,2.36
2023-03-06T06:36:57.959Z,2.50
2023-03-06T06:37:57.993Z,2.58
2023-03-06T06:38:58.046Z,2.69
2023-03-06T06:39:58.172Z,2.81
2023-03-06T06:41:29.149Z,2.98
2023-03-06T06:42:15.463Z,2.99
2023-03-06T06:42:59.149Z,3.00
2023-03-06T06:43:59.121Z,3.08
2023-03-06T06:44:58.139Z,3.22
2023-03-06T06:46:28.274Z,3.49
2023-03-06T06:47:28.214Z,3.02
2023-03-06T06:47:59.225Z,3.03
2023-03-06T06:48:58.230Z,3.19
2023-03-06T06:49:58.145Z,3.51
2023-03-06T06:50:58.131Z,4.16
2023-03-06T06:51:58.081Z,5.14
2023-03-06T06:52:58.107Z,5.55
2023-03-06T06:53:58.075Z,5.61
2023-03-06T06:54:58.061Z,5.81
2023-03-06T06:55:58.070Z,6.23
2023-03-06T06:56:58.043Z,6.46
2023-03-06T06:57:58.053Z,6.64
2023-03-06T06:59:14.004Z,6.90
2023-03-06T06:59:59.006Z,6.92
2023-03-06T07:00:58.047Z,7.03
2023-03-06T07:01:58.049Z,7.32
2023-03-06T07:02:58.035Z,7.70
2023-03-06T07:03:58.067Z,8.56
2023-03-06T07:05:04.172Z,8.91
2023-03-06T07:05:59.009Z,8.93
2023-03-06T07:06:57.972Z,9.00
2023-03-06T07:07:57.989Z,9.21
2023-03-06T07:08:58.021Z,9.68
2023-03-06T07:09:57.966Z,10.51
2023-03-06T07:10:57.935Z,10.90
2023-03-06T07:11:57.978Z,10.94
2023-03-06T07:12:57.953Z,11.37
2023-03-06T07:13:57.924Z,11.36
2023-03-06T07:14:57.938Z,11.68
2023-03-06T07:15:58.058Z,12.20
2023-03-06T07:16:57.969Z,12.18
2023-03-06T07:17:57.912Z,12.47
2023-03-06T07:18:57.926Z,12.72
2023-03-06T07:19:57.884Z,13.32
2023-03-06T07:20:59.822Z,13.35
2023-03-06T07:21:57.895Z,13.90
2023-03-06T07:22:57.889Z,14.11
2023-03-06T07:23:58.459Z,14.27
2023-03-06T07:24:57.855Z,14.72
2023-03-06T07:25:57.872Z,14.92
2023-03-06T07:26:57.836Z,15.26
2023-03-06T07:27:57.841Z,15.40
2023-03-06T07:28:57.815Z,15.50
2023-03-06T07:29:57.810Z,15.76
2023-03-06T07:30:57.829Z,15.99
2023-03-06T07:31:57.820Z,15.79
2023-03-06T07:32:57.777Z,16.71
2023-03-06T07:33:57.824Z,16.87
2023-03-06T07:35:57.786Z,17.84
2023-03-06T07:36:57.996Z,18.15
2023-03-06T07:37:57.752Z,17.79
2023-03-06T07:38:57.757Z,17.59
2023-03-06T07:39:57.717Z,17.32
2023-03-06T07:40:57.729Z,17.26
2023-03-06T07:41:58.039Z,16.94
2023-03-06T07:43:09.172Z,16.85
2023-03-06T07:43:58.734Z,16.88
2023-03-06T07:44:57.736Z,16.98
2023-03-06T07:45:57.765Z,16.99
2023-03-06T07:46:57.778Z,17.28
2023-03-06T07:47:57.674Z,17.87
2023-03-06T07:48:57.684Z,17.94
2023-03-06T07:49:57.696Z,18.07
2023-03-06T07:50:57.677Z,18.83
2023-03-06T07:51:58.055Z,18.82
2023-03-06T07:52:57.664Z,19.42
2023-03-06T07:53:57.625Z,19.80
2023-03-06T07:54:57.658Z,20.65
2023-03-06T07:55:57.918Z,20.71
2023-03-06T07:56:58.522Z,20.88
2023-03-06T07:57:57.600Z,20.31
2023-03-06T07:58:57.625Z,19.62
2023-03-06T07:59:57.628Z,18.59
2023-03-06T08:00:57.602Z,17.91
2023-03-06T08:01:57.627Z,17.60
2023-03-06T08:02:57.666Z,16.76
2023-03-06T08:03:57.790Z,15.72
2023-03-06T08:04:57.713Z,15.65
2023-03-06T08:06:57.984Z,14.51
2023-03-06T08:07:57.685Z,14.04
2023-03-06T08:08:57.699Z,13.55
2023-03-06T08:09:57.719Z,12.86
2023-03-06T08:10:57.668Z,12.65
2023-03-06T08:11:57.697Z,12.41
2023-03-06T08:12:57.689Z,11.97
2023-03-06T08:13:57.691Z,11.94
2023-03-06T08:14:57.715Z,11.76
2023-03-06T08:15:57.750Z,11.43
2023-03-06T08:16:57.711Z,11.25
2023-03-06T08:17:57.967Z,11.06
2023-03-06T08:21:57.695Z,10.15
2023-03-06T08:22:57.977Z,9.77
2023-03-06T08:23:57.703Z,9.81
2023-03-06T08:24:57.756Z,9.54
2023-03-06T08:25:57.711Z,9.56
2023-03-06T08:26:57.751Z,9.36
2023-03-06T08:27:57.992Z,9.26
2023-03-06T08:28:57.762Z,9.07
2023-03-06T08:29:57.794Z,8.82
2023-03-06T08:30:57.822Z,8.82
2023-03-06T08:31:57.804Z,8.58
2023-03-06T08:32:57.965Z,8.38
2023-03-06T08:33:58.031Z,3.79
2023-03-06T08:34:57.901Z,2.79
2023-03-06T08:35:58.806Z,1.95
2023-03-06T08:36:57.977Z,1.80
2023-03-06T08:37:58.571Z,2.15
2023-03-06T08:38:58.088Z,2.36
2023-03-06T08:39:58.094Z,2.46
2023-03-06T08:40:58.083Z,2.88
2023-03-06T08:41:58.102Z,5.02
2023-03-06T08:42:58.547Z,4.92
2023-03-06T08:43:58.211Z,5.27
2023-03-06T08:44:58.205Z,5.90
2023-03-06T08:45:58.233Z,6.91
2023-03-06T08:46:58.282Z,7.24
2023-03-06T08:47:58.555Z,7.58
2023-03-06T08:48:58.437Z,7.78
2023-03-06T08:50:00.180Z,8.17
2023-03-06T08:50:58.451Z,8.68
2023-03-06T08:51:58.414Z,9.00
2023-03-06T08:52:58.514Z,9.77
2023-03-06T08:53:58.472Z,10.04
2023-03-06T08:54:58.516Z,10.67
2023-03-06T08:55:58.568Z,10.75
2023-03-06T08:56:58.581Z,11.32
2023-03-06T08:57:58.600Z,11.61
2023-03-06T08:58:58.594Z,12.20
2023-03-06T08:59:58.613Z,12.33
2023-03-06T09:00:58.745Z,12.68
2023-03-06T09:01:58.640Z,15.77
2023-03-06T09:02:58.750Z,20.88
2023-03-06T09:03:58.773Z,18.71
2023-03-06T09:04:58.834Z,18.57
2023-03-06T09:05:58.878Z,18.06
2023-03-06T09:06:58.948Z,18.39
2023-03-06T09:07:58.966Z,18.25
2023-03-06T09:08:58.966Z,18.06
2023-03-06T09:09:59.015Z,18.37
2023-03-06T09:10:59.121Z,19.04
2023-03-06T09:11:59.994Z,18.31
2023-03-06T09:12:59.108Z,18.28
2023-03-06T09:13:59.119Z,18.05
2023-03-06T09:14:59.161Z,18.57
2023-03-06T09:15:59.163Z,18.60
2023-03-06T09:16:59.165Z,18.84
2023-03-06T09:17:59.184Z,18.78
2023-03-06T09:18:59.140Z,19.17
2023-03-06T09:19:59.157Z,19.48
2023-03-06T09:20:59.152Z,19.32
2023-03-06T09:21:59.116Z,19.60
2023-03-06T09:22:59.103Z,19.38
2023-03-06T09:23:59.149Z,19.65
2023-03-06T09:24:59.182Z,19.79
2023-03-06T09:25:59.199Z,19.60
2023-03-06T09:26:59.203Z,20.35
2023-03-06T09:28:10.788Z,20.21
2023-03-06T09:29:00.236Z,20.26
2023-03-06T09:29:59.180Z,20.28
2023-03-06T09:30:59.372Z,20.42
2023-03-06T09:31:59.184Z,20.38
2023-03-06T09:32:59.509Z,14.52
2023-03-06T09:33:59.184Z,5.75
2023-03-06T09:34:59.179Z,4.26
2023-03-06T09:35:59.269Z,3.71
2023-03-06T09:37:59.526Z,4.14
2023-03-06T09:38:59.241Z,4.29
2023-03-06T09:39:59.505Z,4.11
2023-03-06T09:40:59.106Z,4.27
2023-03-06T09:41:59.465Z,4.46
2023-03-06T09:42:59.209Z,4.68
2023-03-06T09:43:59.177Z,5.08
2023-03-06T09:44:59.189Z,5.34
2023-03-06T09:45:59.294Z,5.48
2023-03-06T09:46:59.323Z,5.45
2023-03-06T09:47:59.339Z,5.62
2023-03-06T09:48:59.348Z,5.70
2023-03-06T09:49:59.400Z,5.46
2023-03-06T09:50:59.764Z,5.80
2023-03-06T09:51:59.412Z,5.89
2023-03-06T09:52:59.442Z,5.92
2023-03-06T09:53:59.520Z,5.91
2023-03-06T09:54:59.473Z,5.73
2023-03-06T09:55:59.512Z,5.86
2023-03-06T09:56:59.551Z,5.91
2023-03-06T09:57:59.565Z,5.92
2023-03-06T09:59:00.030Z,6.16
2023-03-06T10:00:01.009Z,6.11
2023-03-06T10:00:59.723Z,6.28
2023-03-06T10:01:59.795Z,6.50
2023-03-06T10:02:59.886Z,6.90
2023-03-06T10:03:59.859Z,7.00
2023-03-06T10:04:59.882Z,7.15
2023-03-06T10:06:02.429Z,7.29
2023-03-06T10:06:59.929Z,7.49
2023-03-06T10:07:59.921Z,7.75
2023-03-06T10:08:59.915Z,7.84
2023-03-06T10:09:59.905Z,8.07
2023-03-06T10:10:59.919Z,8.39
2023-03-06T10:11:59.900Z,8.51
2023-03-06T10:12:59.850Z,8.55
2023-03-06T10:14:00.056Z,8.70
2023-03-06T10:14:59.874Z,9.02
2023-03-06T10:15:59.903Z,9.12
2023-03-06T10:16:59.830Z,9.46
2023-03-06T10:17:59.834Z,9.47
2023-03-06T10:18:59.845Z,9.75
2023-03-06T10:19:59.893Z,10.18
2023-03-06T10:21:13.427Z,10.25
2023-03-06T10:22:00.804Z,10.29
2023-03-06T10:23:03.160Z,10.44
2023-03-06T10:24:01.058Z,10.31
2023-03-06T10:24:59.822Z,10.52
2023-03-06T10:25:59.881Z,10.89
2023-03-06T10:26:59.931Z,11.55
2023-03-06T10:27:59.846Z,12.78
2023-03-06T10:28:59.746Z,13.17
2023-03-06T10:30:03.339Z,13.58
2023-03-06T10:30:59.858Z,14.02
2023-03-06T10:31:59.841Z,14.18
2023-03-06T10:32:59.874Z,14.66
2023-03-06T10:33:59.796Z,14.44
2023-03-06T10:34:59.787Z,14.63
2023-03-06T10:35:59.803Z,14.69
2023-03-06T10:36:59.795Z,14.80
2023-03-06T10:37:59.754Z,15.11
2023-03-06T10:38:59.822Z,15.19
2023-03-06T10:39:59.793Z,15.59
2023-03-06T10:40:59.749Z,15.56
2023-03-06T10:41:59.704Z,2.03
2023-03-06T10:43:11.191Z,0.34
2023-03-06T10:44:00.763Z,0.34
2023-03-06T10:44:59.760Z,0.34
2023-03-06T10:45:59.796Z,0.34
2023-03-06T10:46:59.733Z,0.37
2023-03-06T10:47:59.696Z,0.54
2023-03-06T10:49:00.095Z,1.06
2023-03-06T10:49:59.674Z,1.13
2023-03-06T10:51:01.115Z,1.18
2023-03-06T10:51:59.644Z,1.43
2023-03-06T10:53:00.530Z,1.73
2023-03-06T10:53:59.739Z,2.15
2023-03-06T10:54:59.640Z,2.30
2023-03-06T10:55:59.629Z,2.59
2023-03-06T10:56:59.654Z,2.88
2023-03-06T10:57:59.620Z,3.17
2023-03-06T10:59:00.177Z,3.36
2023-03-06T10:59:59.613Z,3.65
2023-03-06T11:00:59.595Z,3.73
2023-03-06T11:01:59.659Z,4.12
2023-03-06T11:02:59.600Z,4.41
2023-03-06T11:03:59.585Z,4.67
2023-03-06T11:04:59.642Z,5.05
2023-03-06T11:05:59.533Z,5.26
2023-03-06T11:06:59.530Z,5.65
2023-03-06T11:07:59.597Z,5.78
2023-03-06T11:09:59.525Z,6.27
2023-03-06T11:10:59.515Z,6.69
2023-03-06T11:11:59.505Z,6.78
2023-03-06T11:12:59.482Z,6.89
2023-03-06T11:13:59.584Z,7.38
2023-03-06T11:14:59.534Z,7.65
2023-03-06T11:15:59.471Z,7.94
2023-03-06T11:16:59.472Z,8.33
2023-03-06T11:17:59.496Z,8.54
2023-03-06T11:18:59.544Z,8.88
2023-03-06T11:19:59.466Z,9.07
2023-03-06T11:20:59.440Z,9.52
2023-03-06T11:21:59.478Z,9.64
2023-03-06T11:22:59.643Z,9.78
2023-03-06T11:23:59.606Z,10.33
2023-03-06T11:24:59.429Z,10.28
2023-03-06T11:25:59.445Z,10.67
2023-03-06T11:26:59.395Z,11.00
2023-03-06T11:27:59.389Z,11.20
2023-03-06T11:28:59.460Z,11.43
2023-03-06T11:29:59.467Z,11.43
2023-03-06T11:30:59.589Z,11.26
2023-03-06T11:31:59.624Z,11.80
2023-03-06T11:32:59.618Z,11.63
2023-03-06T11:33:59.723Z,12.15
2023-03-06T11:35:00.176Z,12.17
2023-03-06T11:35:59.828Z,12.52
2023-03-06T11:36:59.823Z,12.27
2023-03-06T11:37:59.912Z,12.64
2023-03-06T11:38:59.936Z,12.25
2023-03-06T11:40:00.008Z,12.08
2023-03-06T11:41:00.001Z,12.64
2023-03-06T11:41:59.965Z,10.82
2023-03-06T11:43:00.381Z,9.98
2023-03-06T11:44:00.372Z,9.93
2023-03-06T11:45:01.314Z,10.19
2023-03-06T11:46:00.103Z,10.22
2023-03-06T11:47:00.166Z,9.91
2023-03-06T11:48:00.145Z,9.65
2023-03-06T11:49:00.120Z,9.27
2023-03-06T11:50:00.580Z,8.89
2023-03-06T11:51:00.177Z,8.52
2023-03-06T11:52:00.264Z,8.41
2023-03-06T11:53:00.219Z,8.11
2023-03-06T11:54:00.284Z,7.78
2023-03-06T11:55:00.703Z,7.44
2023-03-06T11:56:00.332Z,7.28
2023-03-06T11:57:00.333Z,7.16
2023-03-06T11:58:00.376Z,6.86
2023-03-06T11:59:00.405Z,6.54
2023-03-06T12:00:00.449Z,6.44
2023-03-06T12:01:00.517Z,6.20
2023-03-06T12:02:00.743Z,6.16
2023-03-06T12:03:00.542Z,5.85
2023-03-06T12:04:00.609Z,5.65
2023-03-06T12:05:01.203Z,5.53
2023-03-06T12:06:00.695Z,5.42
2023-03-06T12:07:00.743Z,5.37
2023-03-06T12:08:00.782Z,5.19
2023-03-06T12:09:00.864Z,5.02
2023-03-06T12:10:00.901Z,4.96
2023-03-06T12:11:00.932Z,4.77
2023-03-06T12:12:00.976Z,4.61
2023-03-06T12:13:01.063Z,4.53
2023-03-06T12:14:03.616Z,4.37
2023-03-06T12:15:01.135Z,4.33
2023-03-06T12:16:01.032Z,4.30
2023-03-06T12:17:01.080Z,4.18
2023-03-06T12:18:01.117Z,4.05
2023-03-06T12:19:01.094Z,3.99
2023-03-06T12:20:01.104Z,3.92
2023-03-06T12:21:01.043Z,3.85
2023-03-06T12:22:01.058Z,3.78
2023-03-06T12:23:14.645Z,3.75
2023-03-06T12:24:02.052Z,3.76
2023-03-06T12:25:01.058Z,3.66
2023-03-06T12:26:01.046Z,3.51
2023-03-06T12:27:01.002Z,3.41
2023-03-06T12:28:00.982Z,3.34
2023-03-06T12:29:00.998Z,3.23
2023-03-06T12:30:01.196Z,3.23
2023-03-06T12:31:00.977Z,3.06
2023-03-06T12:32:01.081Z,3.16
2023-03-06T12:33:00.956Z,2.98
2023-03-06T12:34:00.960Z,2.98
2023-03-06T12:35:01.188Z,3.12
2023-03-06T12:36:00.939Z,2.90
2023-03-06T12:37:00.904Z,2.89
2023-03-06T12:38:00.949Z,2.75
2023-03-06T12:39:00.942Z,2.64
2023-03-06T12:40:00.937Z,2.30
2023-03-06T12:41:00.895Z,2.05
2023-03-06T12:42:00.946Z,2.08
2023-03-06T12:43:00.918Z,1.93
2023-03-06T12:44:00.910Z,1.90
2023-03-06T12:45:00.956Z,1.71
2023-03-06T12:46:00.930Z,1.64
2023-03-06T12:47:00.928Z,1.65
2023-03-06T12:48:00.924Z,1.56
2023-03-06T12:49:00.934Z,1.54
2023-03-06T12:50:00.953Z,1.51
2023-03-06T12:51:00.949Z,1.42
2023-03-06T12:52:00.951Z,1.35
2023-03-06T12:53:00.915Z,1.32
2023-03-06T12:54:00.930Z,1.31
2023-03-06T12:55:00.902Z,1.32
2023-03-06T12:56:00.898Z,1.28
2023-03-06T12:57:00.918Z,1.24
2023-03-06T12:58:00.900Z,1.21
2023-03-06T12:59:00.899Z,1.24
2023-03-06T13:00:00.895Z,1.26
2023-03-06T13:01:04.732Z,1.21
2023-03-06T13:02:00.882Z,1.26
2023-03-06T13:03:00.879Z,1.25
2023-03-06T13:04:00.859Z,1.25
2023-03-06T13:05:00.868Z,1.21
2023-03-06T13:06:00.881Z,1.22
2023-03-06T13:07:00.864Z,1.34
2023-03-06T13:08:00.838Z,1.41
2023-03-06T13:09:00.824Z,8.82
2023-03-06T13:10:00.855Z,4.44
2023-03-06T13:11:00.795Z,3.95
2023-03-06T13:12:00.834Z,3.94
2023-03-06T13:13:00.896Z,4.24
2023-03-06T13:14:00.789Z,5.42
2023-03-06T13:15:00.870Z,6.24
2023-03-06T13:16:00.776Z,6.16
2023-03-06T13:17:00.781Z,6.20
2023-03-06T13:18:00.783Z,6.29
2023-03-06T13:19:00.737Z,6.22
2023-03-06T13:20:00.722Z,6.23
2023-03-06T13:21:00.742Z,6.10
2023-03-06T13:22:00.770Z,5.84
2023-03-06T13:23:00.768Z,5.88
2023-03-06T13:24:00.725Z,5.73
2023-03-06T13:25:08.164Z,5.48
2023-03-06T13:26:01.737Z,5.49
2023-03-06T13:27:00.716Z,5.49
2023-03-06T13:28:00.682Z,5.41
2023-03-06T13:29:00.684Z,5.33
2023-03-06T13:30:00.691Z,5.10
2023-03-06T13:31:00.731Z,5.21
2023-03-06T13:32:00.752Z,5.21
2023-03-06T13:33:00.628Z,5.22
2023-03-06T13:34:00.657Z,5.16
2023-03-06T13:35:00.643Z,5.23
2023-03-06T13:36:00.659Z,5.26
2023-03-06T13:37:00.621Z,5.21
2023-03-06T13:38:00.595Z,5.23
2023-03-06T13:39:00.604Z,5.37
2023-03-06T13:40:00.623Z,5.27
2023-03-06T13:41:00.621Z,5.26
2023-03-06T13:42:00.558Z,5.18
2023-03-06T13:43:00.564Z,5.18
2023-03-06T13:44:00.576Z,5.21
2023-03-06T13:45:00.561Z,5.12
2023-03-06T13:46:00.576Z,4.98
2023-03-06T13:47:00.580Z,4.78
2023-03-06T13:48:27.244Z,4.85
2023-03-06T13:49:01.522Z,4.80
2023-03-06T13:50:00.521Z,4.73
2023-03-06T13:51:00.525Z,4.56
2023-03-06T13:52:00.545Z,4.49
2023-03-06T13:53:00.493Z,4.42
2023-03-06T13:54:00.518Z,4.43
2023-03-06T13:55:00.484Z,4.38
2023-03-06T13:56:00.495Z,4.29
2023-03-06T13:57:00.455Z,3.85
2023-03-06T13:58:00.478Z,3.81
2023-03-06T13:59:00.477Z,3.56
2023-03-06T14:00:08.559Z,3.44
2023-03-06T14:01:01.476Z,3.44
2023-03-06T14:02:00.444Z,3.37
2023-03-06T14:03:00.466Z,3.39
2023-03-06T14:04:00.485Z,3.22
2023-03-06T14:05:00.411Z,3.19
2023-03-06T14:06:00.421Z,3.04
2023-03-06T14:07:00.394Z,2.97
2023-03-06T14:08:00.397Z,2.83
2023-03-06T14:09:00.369Z,2.63
2023-03-06T14:10:00.361Z,2.73
2023-03-06T14:11:00.379Z,2.79
2023-03-06T14:12:00.356Z,2.62
2023-03-06T14:13:00.373Z,2.60
2023-03-06T14:14:00.336Z,2.63
2023-03-06T14:15:00.345Z,2.52
2023-03-06T14:16:00.403Z,2.39
2023-03-06T14:17:00.327Z,2.31
2023-03-06T14:18:00.319Z,2.24
2023-03-06T14:19:00.318Z,2.35
2023-03-06T14:20:00.314Z,2.39
2023-03-06T14:21:00.293Z,2.57
2023-03-06T14:22:00.303Z,1.82
2023-03-06T14:23:00.268Z,1.80
